Time;durP1;ratioP1;P1;durP2;ratioP2;P2;SDS_P1;SDS_P2;PMS_P1;PMS_P2;Temp;Humidity;BMP_temperature;BMP_pressure;BME280_temperature;BME280_humidity;BME280_pressure;Samples;Min_cycle;Max_cycle;Signal;HPM_P1;HPM_P2
2021/08/23 07:26:46;;;;;;;4.22;2.67;;;;;;;;;;6177692;22;20564;-65
2021/08/23 07:29:13;;;;;;;8.33;5.63;;;;;;;;;;6301227;22;20351;-62
2021/08/23 07:31:39;;;;;;;9.25;5.85;;;;;;;;;;6302154;22;20463;-60
2021/08/23 07:34:06;;;;;;;7.65;5.55;;;;;;;;;;6274566;22;20429;-60
2021/08/23 07:36:32;;;;;;;7.55;5.57;;;;;;;;;;6303010;22;20334;-62
2021/08/23 07:38:58;;;;;;;10.57;5.97;;;;;;;;;;6303055;22;20380;-62
2021/08/23 07:41:24;;;;;;;8.68;5.45;;;;;;;;;;6303346;22;20327;-62
2021/08/23 07:43:50;;;;;;;8.43;5.45;;;;;;;;;;6303695;22;20673;-60
2021/08/23 07:46:16;;;;;;;9.55;5.97;;;;;;;;;;6302863;22;20380;-65
2021/08/23 07:48:44;;;;;;;10.88;6.85;;;;;;;;;;6272461;22;20352;-61
2021/08/23 07:51:11;;;;;;;10.52;8.13;;;;;;;;;;6304183;22;20330;-59
2021/08/23 07:53:37;;;;;;;10.45;7.25;;;;;;;;;;6304430;22;20338;-60
2021/08/23 07:56:03;;;;;;;11.77;7.95;;;;;;;;;;6304385;22;20339;-60
2021/08/23 07:58:29;;;;;;;9.95;7.18;;;;;;;;;;6303896;22;20366;-56
2021/08/23 08:00:55;;;;;;;11.23;7.03;;;;;;;;;;6303861;22;20859;-62
2021/08/23 08:03:22;;;;;;;9.03;6.70;;;;;;;;;;6304057;22;20393;-61
2021/08/23 08:05:48;;;;;;;8.63;6.17;;;;;;;;;;6302820;22;20388;-62
2021/08/23 08:08:14;;;;;;;9.30;6.63;;;;;;;;;;6302897;22;20331;-63
2021/08/23 08:10:40;;;;;;;8.55;6.28;;;;;;;;;;6275328;22;20838;-62
2021/08/23 08:13:07;;;;;;;10.30;6.20;;;;;;;;;;6275799;22;20342;-57
2021/08/23 08:15:33;;;;;;;8.25;6.30;;;;;;;;;;6274565;22;20427;-60
2021/08/23 08:17:59;;;;;;;9.25;5.60;;;;;;;;;;6303032;22;20406;-65
2021/08/23 08:20:25;;;;;;;8.27;5.70;;;;;;;;;;6303125;22;20597;-53
2021/08/23 08:22:51;;;;;;;8.95;5.28;;;;;;;;;;6302043;22;20787;-59
2021/08/23 08:25:18;;;;;;;8.32;5.20;;;;;;;;;;6302801;22;20334;-60
2021/08/23 08:27:44;;;;;;;8.05;5.10;;;;;;;;;;6302012;22;20634;-59
2021/08/23 08:30:14;;;;;;;7.57;5.30;;;;;;;;;;6303196;22;20362;-59
2021/08/23 08:32:40;;;;;;;8.15;5.40;;;;;;;;;;6275454;22;20813;-57
2021/08/23 08:35:06;;;;;;;9.83;4.93;;;;;;;;;;6275879;22;20810;-60
2021/08/23 08:37:32;;;;;;;7.75;5.10;;;;;;;;;;6302462;22;20327;-58
2021/08/23 08:39:58;;;;;;;8.85;5.38;;;;;;;;;;6302262;22;20358;-61
2021/08/23 08:42:24;;;;;;;7.45;5.03;;;;;;;;;;6303173;22;20322;-60
2021/08/23 08:44:51;;;;;;;7.97;4.82;;;;;;;;;;6275645;22;20414;-57
2021/08/23 08:47:18;;;;;;;7.18;4.88;;;;;;;;;;6275873;22;20342;-56
2021/08/23 08:49:44;;;;;;;7.67;5.27;;;;;;;;;;6302946;22;20369;-58
2021/08/23 08:52:11;;;;;;;7.28;4.95;;;;;;;;;;6302291;22;20735;-60
2021/08/23 08:54:39;;;;;;;8.20;5.20;;;;;;;;;;6303143;22;20335;-59
2021/08/23 08:57:05;;;;;;;7.45;4.97;;;;;;;;;;6303089;22;20327;-59
2021/08/23 08:59:34;;;;;;;8.10;4.80;;;;;;;;;;6302742;22;20386;-60
2021/08/23 09:02:00;;;;;;;7.15;4.60;;;;;;;;;;6302318;22;20655;-58
2021/08/23 09:04:28;;;;;;;8.57;4.70;;;;;;;;;;6302897;22;20323;-59
2021/08/23 09:06:55;;;;;;;7.28;4.30;;;;;;;;;;6302143;22;20342;-58
2021/08/23 09:09:22;;;;;;;7.60;4.35;;;;;;;;;;6275202;22;20364;-57
2021/08/23 09:11:56;;;;;;;8.35;4.30;;;;;;;;;;6302411;22;20421;-59
2021/08/23 09:14:22;;;;;;;6.38;3.83;;;;;;;;;;6302293;22;20372;-60
2021/08/23 09:16:48;;;;;;;6.75;3.95;;;;;;;;;;6302272;22;20414;-56
2021/08/23 09:19:24;;;;;;;6.80;4.30;;;;;;;;;;6301401;22;20358;-62
2021/08/23 09:21:58;;;;;;;7.00;3.70;;;;;;;;;;6301895;22;20338;-61
2021/08/23 09:24:24;;;;;;;6.57;4.38;;;;;;;;;;6303064;22;20322;-59
2021/08/23 09:26:50;;;;;;;8.05;4.60;;;;;;;;;;6302573;22;20362;-61
2021/08/23 09:29:16;;;;;;;6.90;3.90;;;;;;;;;;6302767;22;20339;-61
2021/08/23 09:31:43;;;;;;;6.97;4.38;;;;;;;;;;6302059;22;20331;-60
2021/08/23 09:34:10;;;;;;;6.93;4.20;;;;;;;;;;6302324;22;20323;-69
2021/08/23 09:36:36;;;;;;;5.75;3.95;;;;;;;;;;6301775;22;20384;-61
2021/08/23 09:39:05;;;;;;;6.17;4.03;;;;;;;;;;6301817;22;20462;-63
2021/08/23 09:41:32;;;;;;;7.20;4.45;;;;;;;;;;6302389;22;20374;-58
2021/08/23 09:44:05;;;;;;;6.70;4.40;;;;;;;;;;6275032;22;20334;-62
2021/08/23 09:46:35;;;;;;;7.45;4.57;;;;;;;;;;6302604;22;20346;-71
2021/08/23 09:49:06;;;;;;;7.25;4.70;;;;;;;;;;6302513;22;20366;-59
2021/08/23 09:51:39;;;;;;;7.57;4.53;;;;;;;;;;6301345;22;20327;-63
2021/08/23 09:54:16;;;;;;;7.88;5.00;;;;;;;;;;6301847;22;20839;-65
2021/08/23 09:56:44;;;;;;;7.13;5.00;;;;;;;;;;6302274;22;20327;-66
2021/08/23 09:59:15;;;;;;;6.88;4.72;;;;;;;;;;6302110;22;20471;-61
2021/08/23 10:01:41;;;;;;;6.95;4.60;;;;;;;;;;6302090;22;20331;-61
2021/08/23 10:04:10;;;;;;;6.63;4.90;;;;;;;;;;6302176;22;20365;-62
2021/08/23 10:06:37;;;;;;;8.02;4.90;;;;;;;;;;6274733;22;20870;-64
2021/08/23 10:09:05;;;;;;;7.63;5.03;;;;;;;;;;6302386;22;20335;-62
2021/08/23 10:11:35;;;;;;;7.97;5.20;;;;;;;;;;6301635;22;20346;-63
2021/08/23 10:14:02;;;;;;;9.68;5.13;;;;;;;;;;6301767;22;20327;-62
2021/08/23 10:16:29;;;;;;;10.07;5.30;;;;;;;;;;6300296;22;20349;-62
2021/08/23 10:18:55;;;;;;;9.23;5.60;;;;;;;;;;6301380;22;20378;-60
2021/08/23 10:21:24;;;;;;;8.40;5.57;;;;;;;;;;6301096;22;20787;-61
2021/08/23 10:23:52;;;;;;;7.75;5.15;;;;;;;;;;6301471;22;20331;-64
2021/08/23 10:26:19;;;;;;;10.10;5.70;;;;;;;;;;6301663;22;20323;-64
2021/08/23 10:28:48;;;;;;;8.40;5.13;;;;;;;;;;6299584;22;20382;-62
2021/08/23 10:31:14;;;;;;;8.85;5.50;;;;;;;;;;6301220;22;20338;-58
2021/08/23 10:33:42;;;;;;;8.45;5.28;;;;;;;;;;6274085;22;20342;-58
2021/08/23 10:36:12;;;;;;;8.50;5.57;;;;;;;;;;6300053;22;20410;-59
2021/08/23 10:38:38;;;;;;;7.10;5.57;;;;;;;;;;6272854;22;20652;-58
2021/08/23 10:41:08;;;;;;;7.28;5.30;;;;;;;;;;6273791;22;20357;-58
2021/08/23 10:43:46;;;;;;;6.90;5.18;;;;;;;;;;6272887;22;20346;-59
2021/08/23 10:46:26;;;;;;;7.82;5.30;;;;;;;;;;6274484;22;20877;-58
2021/08/23 10:48:54;;;;;;;7.20;5.28;;;;;;;;;;6274321;22;20350;-58
2021/08/23 10:51:30;;;;;;;8.48;5.10;;;;;;;;;;6274432;22;20355;-59
2021/08/23 10:53:57;;;;;;;8.32;5.55;;;;;;;;;;6274841;22;20358;-58
2021/08/23 10:56:24;;;;;;;6.95;5.25;;;;;;;;;;6275036;22;20342;-58
2021/08/23 10:58:53;;;;;;;6.78;5.55;;;;;;;;;;6301383;22;20461;-62
2021/08/23 11:01:23;;;;;;;10.77;5.82;;;;;;;;;;6274640;22;20339;-61
2021/08/23 11:04:02;;;;;;;12.65;6.20;;;;;;;;;;6301629;22;20334;-61
2021/08/23 11:06:28;;;;;;;9.68;5.53;;;;;;;;;;6303630;22;20609;-60
2021/08/23 11:09:05;;;;;;;9.82;5.70;;;;;;;;;;6303897;22;20414;-56
2021/08/23 11:11:35;;;;;;;12.03;6.13;;;;;;;;;;6275559;22;20956;-58
2021/08/23 11:14:01;;;;;;;12.52;5.80;;;;;;;;;;6304450;22;20360;-58
2021/08/23 11:16:27;;;;;;;9.18;5.80;;;;;;;;;;6303776;22;20651;-58
2021/08/23 11:18:53;;;;;;;9.52;6.05;;;;;;;;;;6304546;22;20371;-58
2021/08/23 11:21:24;;;;;;;11.47;5.80;;;;;;;;;;6302635;22;20326;-59
2021/08/23 11:23:50;;;;;;;11.70;6.70;;;;;;;;;;6303786;22;20330;-60
2021/08/23 11:26:21;;;;;;;9.93;6.05;;;;;;;;;;6304417;22;20411;-61
2021/08/23 11:28:47;;;;;;;9.77;5.97;;;;;;;;;;6275888;22;20367;-59
2021/08/23 11:31:13;;;;;;;12.35;6.18;;;;;;;;;;6304224;22;20342;-62
2021/08/23 11:33:43;;;;;;;9.70;5.97;;;;;;;;;;6276745;22;20339;-59
2021/08/23 11:36:15;;;;;;;8.93;5.70;;;;;;;;;;6276482;22;20419;-59
2021/08/23 11:38:41;;;;;;;8.20;5.57;;;;;;;;;;6303294;22;20362;-60
2021/08/23 11:41:09;;;;;;;8.15;5.80;;;;;;;;;;6303578;22;20414;-60
2021/08/23 11:43:35;;;;;;;7.78;5.55;;;;;;;;;;6303776;22;20338;-59
2021/08/23 11:46:02;;;;;;;8.48;5.65;;;;;;;;;;6276537;22;20653;-58
2021/08/23 11:48:35;;;;;;;7.50;5.50;;;;;;;;;;6275869;22;20422;-60
2021/08/23 11:51:03;;;;;;;9.18;6.00;;;;;;;;;;6302354;22;20319;-60
2021/08/23 11:53:34;;;;;;;8.33;5.70;;;;;;;;;;6302214;22;20371;-61
2021/08/23 11:56:05;;;;;;;8.77;5.57;;;;;;;;;;6302980;22;20331;-62
2021/08/23 11:58:36;;;;;;;8.23;5.60;;;;;;;;;;6301374;22;20374;-62
2021/08/23 12:01:04;;;;;;;6.78;5.40;;;;;;;;;;6301382;22;20334;-62
2021/08/23 12:03:30;;;;;;;8.05;5.45;;;;;;;;;;6301110;22;20429;-62
2021/08/23 12:06:23;;;;;;;7.72;5.43;;;;;;;;;;6301360;22;20424;-62
2021/08/23 12:09:00;;;;;;;7.55;5.30;;;;;;;;;;6294222;22;21064;-61
2021/08/23 12:11:26;;;;;;;7.50;5.35;;;;;;;;;;6303006;22;20364;-59
2021/08/23 12:13:52;;;;;;;7.63;5.43;;;;;;;;;;6303387;22;20331;-59
2021/08/23 12:16:19;;;;;;;8.57;5.30;;;;;;;;;;6303917;22;20330;-58
2021/08/23 12:18:50;;;;;;;7.13;5.20;;;;;;;;;;6274850;22;20806;-58
2021/08/23 12:21:16;;;;;;;7.97;5.45;;;;;;;;;;6303403;22;20502;-62
2021/08/23 12:23:48;;;;;;;6.57;5.15;;;;;;;;;;6303006;22;20771;-59
2021/08/23 12:26:23;;;;;;;6.85;5.13;;;;;;;;;;6302887;22;20327;-60
2021/08/23 12:28:52;;;;;;;7.30;5.18;;;;;;;;;;6303650;22;20359;-59
2021/08/23 12:31:19;;;;;;;6.93;5.07;;;;;;;;;;6302780;22;20319;-61
2021/08/23 12:33:45;;;;;;;8.17;5.33;;;;;;;;;;6303049;22;20435;-60
2021/08/23 12:36:12;;;;;;;6.53;5.20;;;;;;;;;;6303430;22;20444;-59
2021/08/23 12:38:39;;;;;;;7.38;4.63;;;;;;;;;;6302616;22;20426;-55
2021/08/23 12:41:09;;;;;;;6.95;5.10;;;;;;;;;;6302038;22;20346;-56
2021/08/23 12:43:36;;;;;;;10.02;5.80;;;;;;;;;;6303591;22;20351;-58
2021/08/23 12:46:03;;;;;;;7.13;5.38;;;;;;;;;;6304036;22;20795;-58
2021/08/23 12:48:29;;;;;;;7.53;5.43;;;;;;;;;;6304604;22;20643;-56
2021/08/23 12:50:56;;;;;;;7.90;5.40;;;;;;;;;;6275672;22;20434;-57
2021/08/23 12:53:23;;;;;;;6.40;5.28;;;;;;;;;;6302801;22;20326;-57
2021/08/23 12:55:49;;;;;;;6.32;5.20;;;;;;;;;;6302969;22;20390;-55
2021/08/23 12:58:15;;;;;;;7.15;5.20;;;;;;;;;;6303071;22;20350;-54
2021/08/23 13:00:41;;;;;;;7.55;5.10;;;;;;;;;;6303568;22;20345;-52
2021/08/23 13:03:07;;;;;;;6.03;5.43;;;;;;;;;;6301939;22;20370;-56
2021/08/23 13:05:35;;;;;;;6.90;5.10;;;;;;;;;;6302446;22;20651;-56
2021/08/23 13:08:02;;;;;;;8.10;5.60;;;;;;;;;;6302572;22;20406;-56
2021/08/23 13:10:28;;;;;;;8.32;5.97;;;;;;;;;;6274309;22;20343;-56
2021/08/23 13:12:54;;;;;;;8.18;6.28;;;;;;;;;;6301984;22;20338;-49
2021/08/23 13:15:20;;;;;;;7.55;6.28;;;;;;;;;;6302421;22;20373;-50
2021/08/23 13:17:46;;;;;;;8.77;7.15;;;;;;;;;;6302747;22;20436;-52
2021/08/23 13:20:13;;;;;;;8.77;7.00;;;;;;;;;;6302425;22;20422;-54
2021/08/23 13:22:39;;;;;;;7.53;6.50;;;;;;;;;;6301642;22;20608;-54
2021/08/23 13:25:05;;;;;;;9.70;7.25;;;;;;;;;;6302257;22;20339;-53
2021/08/23 13:27:31;;;;;;;8.23;7.18;;;;;;;;;;6302195;22;20374;-56
2021/08/23 13:29:58;;;;;;;8.80;7.78;;;;;;;;;;6302914;22;20331;-55
2021/08/23 13:32:24;;;;;;;10.23;6.90;;;;;;;;;;6302883;22;20338;-56
2021/08/23 13:34:50;;;;;;;9.33;7.23;;;;;;;;;;6302356;22;20327;-50
2021/08/23 13:37:16;;;;;;;8.63;6.90;;;;;;;;;;6301536;22;20593;-54
2021/08/23 13:39:42;;;;;;;8.97;7.27;;;;;;;;;;6302101;22;20366;-50
2021/08/23 13:42:08;;;;;;;8.90;7.22;;;;;;;;;;6302823;22;20406;-51
2021/08/23 13:44:34;;;;;;;9.98;7.65;;;;;;;;;;6302955;22;20319;-54
2021/08/23 13:47:00;;;;;;;10.00;7.22;;;;;;;;;;6302893;22;20386;-54
2021/08/23 13:49:26;;;;;;;9.00;7.05;;;;;;;;;;6302600;22;20338;-51
2021/08/23 13:51:53;;;;;;;9.10;7.03;;;;;;;;;;6273953;22;20778;-53
2021/08/23 13:54:19;;;;;;;8.27;7.25;;;;;;;;;;6301829;22;20397;-55
2021/08/23 13:56:45;;;;;;;8.77;7.13;;;;;;;;;;6302457;22;20483;-55
2021/08/23 13:59:11;;;;;;;8.38;7.30;;;;;;;;;;6302561;22;20373;-55
2021/08/23 14:01:37;;;;;;;9.40;7.68;;;;;;;;;;6302333;22;20325;-55
2021/08/23 14:04:03;;;;;;;8.73;7.03;;;;;;;;;;6300873;22;20413;-55
2021/08/23 14:06:32;;;;;;;8.40;6.72;;;;;;;;;;6301101;22;20958;-52
2021/08/23 14:08:58;;;;;;;8.85;6.82;;;;;;;;;;6274343;22;20358;-64
2021/08/23 14:11:24;;;;;;;7.97;6.82;;;;;;;;;;6301813;22;20405;-60
2021/08/23 14:13:50;;;;;;;10.30;7.00;;;;;;;;;;6301886;22;20348;-61
2021/08/23 14:16:16;;;;;;;10.40;7.47;;;;;;;;;;6302033;22;20463;-60
2021/08/23 14:18:42;;;;;;;9.68;7.00;;;;;;;;;;6302526;22;20401;-61
2021/08/23 14:21:08;;;;;;;10.15;7.38;;;;;;;;;;6301221;22;20474;-56
2021/08/23 14:23:34;;;;;;;8.75;7.38;;;;;;;;;;6301446;22;20346;-57
2021/08/23 14:26:01;;;;;;;10.60;7.90;;;;;;;;;;6301370;22;20419;-58
2021/08/23 14:28:27;;;;;;;9.50;7.60;;;;;;;;;;6300722;22;20450;-57
2021/08/23 14:30:53;;;;;;;9.30;7.57;;;;;;;;;;6301450;22;20338;-57
2021/08/23 14:33:19;;;;;;;9.10;7.20;;;;;;;;;;6274551;22;20406;-58
2021/08/23 14:35:45;;;;;;;10.75;7.68;;;;;;;;;;6301449;22;20334;-58
2021/08/23 14:38:11;;;;;;;8.88;7.30;;;;;;;;;;6274116;22;20449;-58
2021/08/23 14:40:37;;;;;;;9.18;7.07;;;;;;;;;;6301577;22;20732;-55
2021/08/23 14:43:06;;;;;;;9.40;7.18;;;;;;;;;;6301883;22;20402;-57
2021/08/23 14:45:32;;;;;;;9.30;6.68;;;;;;;;;;6301636;22;20787;-59
2021/08/23 14:47:58;;;;;;;9.02;7.20;;;;;;;;;;6301671;22;20353;-59
2021/08/23 14:50:25;;;;;;;8.13;6.80;;;;;;;;;;6301440;22;20338;-61
2021/08/23 14:52:51;;;;;;;8.95;6.80;;;;;;;;;;6301279;22;20586;-55
2021/08/23 14:55:17;;;;;;;8.13;6.40;;;;;;;;;;6300972;22;20327;-54
2021/08/23 14:57:43;;;;;;;8.07;6.53;;;;;;;;;;6301503;22;20356;-52
2021/08/23 15:00:10;;;;;;;8.27;6.70;;;;;;;;;;6301057;22;20501;-54
2021/08/23 15:02:37;;;;;;;7.25;6.00;;;;;;;;;;6301822;22;20694;-53
2021/08/23 15:05:03;;;;;;;8.63;6.78;;;;;;;;;;6301312;22;20414;-51
2021/08/23 15:07:32;;;;;;;9.02;6.75;;;;;;;;;;6300916;22;20318;-51
2021/08/23 15:09:58;;;;;;;9.10;6.60;;;;;;;;;;6300893;22;20636;-50
2021/08/23 15:12:24;;;;;;;9.15;6.70;;;;;;;;;;6301617;22;20339;-53
2021/08/23 15:14:50;;;;;;;10.65;7.07;;;;;;;;;;6272485;22;20339;-52
2021/08/23 15:17:16;;;;;;;9.13;6.90;;;;;;;;;;6301036;22;20387;-51
2021/08/23 15:19:42;;;;;;;9.05;6.75;;;;;;;;;;6301493;22;20366;-51
2021/08/23 15:22:08;;;;;;;8.80;7.05;;;;;;;;;;6301133;22;20323;-55
2021/08/23 15:24:36;;;;;;;9.70;6.90;;;;;;;;;;6301044;22;20805;-54
2021/08/23 15:27:02;;;;;;;9.30;7.25;;;;;;;;;;6299890;22;20636;-53
2021/08/23 15:29:28;;;;;;;9.10;6.32;;;;;;;;;;6300757;22;20331;-51
2021/08/23 15:31:54;;;;;;;8.20;6.53;;;;;;;;;;6301263;22;20483;-54
2021/08/23 15:34:20;;;;;;;7.95;6.70;;;;;;;;;;6301555;22;20759;-51
2021/08/23 15:36:46;;;;;;;7.65;6.38;;;;;;;;;;6300421;22;20414;-55
2021/08/23 15:39:12;;;;;;;9.55;6.82;;;;;;;;;;6301465;22;20375;-54
2021/08/23 15:41:38;;;;;;;8.88;6.90;;;;;;;;;;6301070;22;20330;-55
2021/08/23 15:44:05;;;;;;;10.88;6.88;;;;;;;;;;6301489;22;20349;-58
2021/08/23 15:46:31;;;;;;;8.20;6.72;;;;;;;;;;6300425;22;20343;-56
2021/08/23 15:48:57;;;;;;;8.70;6.90;;;;;;;;;;6299809;22;20505;-55
2021/08/23 15:51:23;;;;;;;8.73;6.70;;;;;;;;;;6271777;22;20339;-54
2021/08/23 15:53:49;;;;;;;9.10;7.32;;;;;;;;;;6300829;22;20360;-54
2021/08/23 15:56:16;;;;;;;8.00;6.63;;;;;;;;;;6302904;22;20338;-54
2021/08/23 15:58:42;;;;;;;9.55;6.85;;;;;;;;;;6302626;22;20790;-55
2021/08/23 16:01:08;;;;;;;8.43;6.50;;;;;;;;;;6303572;22;20411;-59
2021/08/23 16:03:35;;;;;;;8.40;6.70;;;;;;;;;;6303731;22;20416;-53
2021/08/23 16:06:01;;;;;;;8.63;6.65;;;;;;;;;;6303543;22;20323;-53
2021/08/23 16:08:27;;;;;;;8.15;6.72;;;;;;;;;;6303255;22;20384;-52
2021/08/23 16:10:53;;;;;;;8.50;7.07;;;;;;;;;;6302996;22;20327;-53
2021/08/23 16:13:19;;;;;;;7.97;6.53;;;;;;;;;;6303749;22;20353;-59
2021/08/23 16:15:46;;;;;;;8.37;6.37;;;;;;;;;;6303156;22;20322;-58
2021/08/23 16:18:12;;;;;;;8.93;7.07;;;;;;;;;;6303380;22;20322;-58
2021/08/23 16:20:39;;;;;;;9.20;7.13;;;;;;;;;;6303751;22;20338;-59
2021/08/23 16:23:06;;;;;;;9.80;7.05;;;;;;;;;;6276307;22;20327;-62
2021/08/23 16:25:33;;;;;;;10.10;7.05;;;;;;;;;;6303669;22;20334;-64
2021/08/23 16:28:00;;;;;;;9.27;6.88;;;;;;;;;;6275043;22;20375;-64
2021/08/23 16:30:27;;;;;;;8.27;6.68;;;;;;;;;;6276179;22;20350;-65
2021/08/23 16:33:00;;;;;;;8.48;6.72;;;;;;;;;;6276334;22;20354;-65
2021/08/23 16:35:26;;;;;;;8.70;6.78;;;;;;;;;;6304083;22;20736;-65
2021/08/23 16:37:53;;;;;;;9.82;6.85;;;;;;;;;;6303406;22;20323;-64
2021/08/23 16:40:19;;;;;;;8.73;6.43;;;;;;;;;;6303420;22;20393;-65
2021/08/23 16:42:45;;;;;;;8.38;6.35;;;;;;;;;;6303329;22;20327;-65
2021/08/23 16:45:12;;;;;;;8.25;6.40;;;;;;;;;;6276364;22;20346;-65
2021/08/23 16:47:38;;;;;;;8.13;6.25;;;;;;;;;;6275856;22;20445;-65
2021/08/23 16:50:06;;;;;;;7.93;6.10;;;;;;;;;;6303067;22;20362;-64
2021/08/23 16:52:33;;;;;;;7.95;6.00;;;;;;;;;;6275838;22;20412;-65
2021/08/23 16:54:59;;;;;;;6.78;5.80;;;;;;;;;;6275687;22;20408;-64
2021/08/23 16:57:25;;;;;;;7.85;6.03;;;;;;;;;;6303348;22;20330;-64
2021/08/23 16:59:51;;;;;;;7.93;6.22;;;;;;;;;;6275286;22;20378;-64
2021/08/23 17:02:17;;;;;;;7.28;6.00;;;;;;;;;;6303170;22;20338;-65
2021/08/23 17:04:43;;;;;;;7.88;6.05;;;;;;;;;;6303056;22;20319;-65
2021/08/23 17:07:26;;;;;;;7.38;5.90;;;;;;;;;;6302747;22;20388;-64
2021/08/23 17:09:52;;;;;;;6.60;5.20;;;;;;;;;;6274988;22;20769;-63
2021/08/23 17:12:18;;;;;;;7.53;5.55;;;;;;;;;;6302428;22;20387;-63
2021/08/23 17:14:44;;;;;;;7.45;5.53;;;;;;;;;;6303141;22;20353;-64
2021/08/23 17:17:11;;;;;;;6.85;5.45;;;;;;;;;;6302604;22;20322;-64
2021/08/23 17:19:37;;;;;;;6.47;5.15;;;;;;;;;;6274962;22;20510;-62
2021/08/23 17:22:04;;;;;;;7.57;5.38;;;;;;;;;;6302979;22;20334;-65
2021/08/23 17:24:30;;;;;;;6.55;5.60;;;;;;;;;;6275298;22;20740;-65
2021/08/23 17:26:56;;;;;;;6.90;5.40;;;;;;;;;;6302756;22;20638;-64
2021/08/23 17:29:22;;;;;;;7.43;5.60;;;;;;;;;;6302922;22;20411;-64
2021/08/23 17:31:48;;;;;;;7.10;5.35;;;;;;;;;;6275072;22;20448;-64
2021/08/23 17:34:14;;;;;;;6.10;5.03;;;;;;;;;;6303111;22;20424;-64
2021/08/23 17:36:40;;;;;;;7.20;5.03;;;;;;;;;;6302631;22;20358;-64
2021/08/23 17:39:06;;;;;;;6.43;5.10;;;;;;;;;;6302663;22;20402;-64
2021/08/23 17:41:34;;;;;;;8.32;5.40;;;;;;;;;;6302825;22;20417;-64
2021/08/23 17:44:00;;;;;;;6.20;4.80;;;;;;;;;;6303099;22;20401;-64
2021/08/23 17:46:26;;;;;;;6.78;5.18;;;;;;;;;;6275398;22;20346;-64
2021/08/23 17:48:52;;;;;;;6.50;5.07;;;;;;;;;;6302700;22;20338;-64
2021/08/23 17:51:19;;;;;;;6.53;5.10;;;;;;;;;;6275075;22;20346;-64
2021/08/23 17:53:45;;;;;;;6.70;4.82;;;;;;;;;;6275334;22;20331;-64
2021/08/23 17:56:12;;;;;;;6.00;4.95;;;;;;;;;;6303053;22;20353;-64
2021/08/23 17:58:38;;;;;;;6.25;4.85;;;;;;;;;;6302736;22;20442;-65
2021/08/23 18:01:06;;;;;;;6.83;4.93;;;;;;;;;;6302499;22;20335;-64
2021/08/23 18:03:33;;;;;;;7.53;5.40;;;;;;;;;;6302822;22;20334;-64
2021/08/23 18:05:59;;;;;;;6.85;5.10;;;;;;;;;;6274974;22;20349;-63
2021/08/23 18:08:25;;;;;;;5.85;4.78;;;;;;;;;;6274718;22;20369;-63
2021/08/23 18:10:51;;;;;;;7.45;5.05;;;;;;;;;;6302254;22;20358;-64
2021/08/23 18:13:17;;;;;;;7.40;4.97;;;;;;;;;;6301888;22;20331;-64
2021/08/23 18:15:49;;;;;;;7.07;4.90;;;;;;;;;;6274493;22;20339;-63
2021/08/23 18:18:15;;;;;;;6.35;4.72;;;;;;;;;;6302311;22;20327;-64
2021/08/23 18:20:41;;;;;;;6.80;5.10;;;;;;;;;;6302111;22;20452;-63
2021/08/23 18:23:07;;;;;;;7.35;4.72;;;;;;;;;;6274169;22;20361;-64
2021/08/23 18:25:34;;;;;;;6.47;4.95;;;;;;;;;;6301911;22;20331;-64
2021/08/23 18:28:00;;;;;;;5.73;4.87;;;;;;;;;;6301863;22;20397;-64
2021/08/23 18:30:26;;;;;;;7.77;5.03;;;;;;;;;;6301756;22;20331;-64
2021/08/23 18:32:52;;;;;;;7.33;5.37;;;;;;;;;;6274792;22;20358;-63
2021/08/23 18:35:18;;;;;;;7.60;5.57;;;;;;;;;;6301589;22;20367;-64
2021/08/23 18:37:44;;;;;;;8.20;5.75;;;;;;;;;;6274048;22;20415;-63
2021/08/23 18:40:10;;;;;;;7.65;5.70;;;;;;;;;;6301525;22;20745;-63
2021/08/23 18:42:36;;;;;;;7.88;5.72;;;;;;;;;;6302008;22;20410;-64
2021/08/23 18:45:03;;;;;;;8.40;5.70;;;;;;;;;;6301711;22;20620;-63
2021/08/23 18:47:30;;;;;;;7.38;5.57;;;;;;;;;;6274474;22;20774;-64
2021/08/23 18:49:56;;;;;;;8.05;5.80;;;;;;;;;;6274462;22;20503;-63
2021/08/23 18:52:22;;;;;;;8.35;5.72;;;;;;;;;;6302163;22;20323;-64
2021/08/23 18:54:48;;;;;;;8.27;5.70;;;;;;;;;;6302236;22;20361;-64
2021/08/23 18:57:14;;;;;;;8.00;6.10;;;;;;;;;;6301611;22;20346;-64
2021/08/23 18:59:40;;;;;;;8.68;6.13;;;;;;;;;;6302297;22;20428;-64
2021/08/23 19:02:07;;;;;;;8.57;6.00;;;;;;;;;;6274316;22;20351;-63
2021/08/23 19:04:33;;;;;;;7.57;6.07;;;;;;;;;;6301654;22;20384;-64
2021/08/23 19:06:59;;;;;;;8.70;6.20;;;;;;;;;;6274392;22;20345;-64
2021/08/23 19:09:25;;;;;;;7.82;6.07;;;;;;;;;;6301977;22;20331;-64
2021/08/23 19:11:51;;;;;;;7.72;6.00;;;;;;;;;;6302042;22;20372;-64
2021/08/23 19:14:18;;;;;;;7.90;6.13;;;;;;;;;;6301464;22;20361;-64
2021/08/23 19:16:47;;;;;;;8.73;6.38;;;;;;;;;;6274823;22;20347;-64
2021/08/23 19:19:13;;;;;;;9.07;6.28;;;;;;;;;;6274833;22;20724;-62
2021/08/23 19:21:39;;;;;;;8.10;6.22;;;;;;;;;;6302266;22;20341;-61
2021/08/23 19:24:06;;;;;;;7.90;5.80;;;;;;;;;;6301817;22;20343;-63
2021/08/23 19:26:32;;;;;;;8.43;6.30;;;;;;;;;;6275647;22;20664;-63
2021/08/23 19:28:59;;;;;;;8.68;6.20;;;;;;;;;;6303596;22;20403;-61
2021/08/23 19:31:25;;;;;;;8.30;6.27;;;;;;;;;;6276630;22;20877;-62
2021/08/23 19:33:51;;;;;;;9.67;6.17;;;;;;;;;;6304137;22;20620;-62
2021/08/23 19:36:17;;;;;;;9.00;6.10;;;;;;;;;;6304212;22;20371;-62
2021/08/23 19:38:43;;;;;;;10.50;7.10;;;;;;;;;;6304095;22;20370;-63
2021/08/23 19:41:09;;;;;;;8.68;6.95;;;;;;;;;;6303539;22;20337;-62
2021/08/23 19:43:35;;;;;;;11.38;6.97;;;;;;;;;;6303781;22;20643;-63
2021/08/23 19:46:03;;;;;;;9.30;6.93;;;;;;;;;;6303969;22;20396;-63
2021/08/23 19:48:29;;;;;;;11.82;7.18;;;;;;;;;;6303885;22;20386;-63
2021/08/23 19:50:55;;;;;;;9.60;6.50;;;;;;;;;;6304278;22;20402;-62
2021/08/23 19:53:21;;;;;;;9.63;6.78;;;;;;;;;;6303924;22;20401;-63
2021/08/23 19:55:49;;;;;;;11.68;6.95;;;;;;;;;;6303344;22;20781;-63
2021/08/23 19:58:15;;;;;;;8.77;6.32;;;;;;;;;;6303885;22;20427;-61
2021/08/23 20:00:41;;;;;;;9.98;6.90;;;;;;;;;;6304281;22;20375;-67
2021/08/23 20:03:08;;;;;;;12.43;6.97;;;;;;;;;;6303024;22;20338;-65
2021/08/23 20:05:35;;;;;;;10.52;6.72;;;;;;;;;;6303627;22;20330;-66
2021/08/23 20:08:01;;;;;;;10.40;7.00;;;;;;;;;;6303609;22;20331;-65
2021/08/23 20:10:28;;;;;;;10.48;6.70;;;;;;;;;;6303345;22;20322;-66
2021/08/23 20:13:01;;;;;;;12.30;6.68;;;;;;;;;;6303922;22;20334;-66
2021/08/23 20:15:27;;;;;;;8.55;6.38;;;;;;;;;;6276499;22;20392;-65
2021/08/23 20:18:03;;;;;;;10.20;6.90;;;;;;;;;;6274997;22;20371;-66
2021/08/23 20:20:29;;;;;;;8.67;6.47;;;;;;;;;;6304273;22;20374;-65
2021/08/23 20:22:56;;;;;;;11.15;6.43;;;;;;;;;;6276137;22;20608;-66
2021/08/23 20:25:23;;;;;;;8.50;6.30;;;;;;;;;;6276222;22;20373;-66
2021/08/23 20:27:53;;;;;;;9.23;6.55;;;;;;;;;;6255146;22;20385;-66
2021/08/23 20:30:20;;;;;;;8.10;6.22;;;;;;;;;;6241663;22;20348;-66
2021/08/23 20:32:48;;;;;;;9.57;6.50;;;;;;;;;;6272682;22;20332;-64
2021/08/23 20:35:15;;;;;;;8.70;6.10;;;;;;;;;;6272380;22;20435;-66
2021/08/23 20:37:51;;;;;;;10.52;6.40;;;;;;;;;;6245203;22;20781;-65
2021/08/23 20:40:18;;;;;;;10.00;6.55;;;;;;;;;;6271940;22;20375;-66
2021/08/23 20:42:44;;;;;;;9.65;6.38;;;;;;;;;;6272341;22;20843;-66
2021/08/23 20:45:13;;;;;;;8.32;6.13;;;;;;;;;;6272629;22;20329;-67
2021/08/23 20:47:40;;;;;;;9.50;6.30;;;;;;;;;;6271846;22;20474;-67
2021/08/23 20:50:09;;;;;;;10.32;6.38;;;;;;;;;;6271941;22;20496;-67
2021/08/23 20:52:36;;;;;;;8.25;5.70;;;;;;;;;;6272292;22;20415;-64
2021/08/23 20:55:02;;;;;;;10.15;5.95;;;;;;;;;;6244856;22;20781;-66
2021/08/23 20:57:28;;;;;;;9.50;6.13;;;;;;;;;;6244527;22;20400;-66
2021/08/23 20:59:54;;;;;;;10.30;6.53;;;;;;;;;;6271545;22;20376;-66
2021/08/23 21:02:20;;;;;;;7.80;6.07;;;;;;;;;;6271302;22;20324;-67
2021/08/23 21:04:46;;;;;;;9.57;6.13;;;;;;;;;;6243316;22;20674;-66
2021/08/23 21:07:13;;;;;;;9.38;6.07;;;;;;;;;;6271405;22;20389;-67
2021/08/23 21:09:39;;;;;;;8.95;6.10;;;;;;;;;;6271873;22;20412;-65
2021/08/23 21:12:05;;;;;;;8.23;6.32;;;;;;;;;;6244602;22;20470;-67
2021/08/23 21:14:31;;;;;;;7.85;5.97;;;;;;;;;;6243868;22;20383;-66
2021/08/23 21:16:57;;;;;;;8.48;5.70;;;;;;;;;;6271772;22;20324;-65
2021/08/23 21:19:24;;;;;;;9.30;5.95;;;;;;;;;;6271153;22;20364;-66
2021/08/23 21:21:50;;;;;;;8.32;5.78;;;;;;;;;;6271339;22;20325;-63
2021/08/23 21:24:16;;;;;;;8.82;6.00;;;;;;;;;;6271706;22;20835;-56
2021/08/23 21:26:42;;;;;;;9.98;6.18;;;;;;;;;;6244824;22;20371;-59
2021/08/23 21:29:08;;;;;;;13.35;6.18;;;;;;;;;;6272481;22;20491;-60
2021/08/23 21:31:34;;;;;;;7.75;5.80;;;;;;;;;;6244913;22;20352;-62
2021/08/23 21:34:00;;;;;;;9.68;6.05;;;;;;;;;;6272028;22;20373;-61
2021/08/23 21:36:26;;;;;;;10.27;6.40;;;;;;;;;;6271812;22;20350;-60
2021/08/23 21:38:52;;;;;;;7.43;5.68;;;;;;;;;;6271452;22;20464;-62
2021/08/23 21:41:18;;;;;;;9.10;5.78;;;;;;;;;;6271401;22;20751;-59
2021/08/23 21:43:45;;;;;;;7.82;5.68;;;;;;;;;;6271831;22;20587;-61
2021/08/23 21:46:11;;;;;;;10.40;5.90;;;;;;;;;;6271385;22;20734;-60
